Time;durP1;ratioP1;P1;durP2;ratioP2;P2;SDS_P1;SDS_P2;PMS_P1;PMS_P2;Temp;Humidity;BMP_temperature;BMP_pressure;BME280_temperature;BME280_humidity;BME280_pressure;Samples;Min_cycle;Max_cycle;Signal;HPM_P1;HPM_P2
2021/10/30 00:00:59;;;;;;;28.95;22.87;;;;;;;15.85;62.44;102867.81;1733483;82;21002;-51
2021/10/30 00:03:26;;;;;;;30.80;23.30;;;;;;;15.90;62.36;102877.84;1734779;82;21058;-50
2021/10/30 00:05:53;;;;;;;35.25;23.50;;;;;;;15.94;62.24;102872.98;1735463;82;21562;-50
2021/10/30 00:08:20;;;;;;;30.02;23.12;;;;;;;15.96;62.24;102872.52;1735798;82;21034;-51
2021/10/30 00:10:49;;;;;;;33.40;23.05;;;;;;;16.00;62.02;102879.92;1737619;82;20998;-52
2021/10/30 00:13:16;;;;;;;30.80;24.07;;;;;;;16.01;61.93;102877.27;1738557;82;21050;-49
2021/10/30 00:15:44;;;;;;;30.65;23.47;;;;;;;16.03;61.68;102872.87;1735072;82;21050;-51
2021/10/30 00:18:10;;;;;;;28.83;23.07;;;;;;;16.05;61.62;102871.09;1737748;82;21042;-49
2021/10/30 00:20:37;;;;;;;36.80;23.50;;;;;;;16.08;61.53;102874.14;1726294;82;21541;-52
2021/10/30 00:23:04;;;;;;;30.50;23.18;;;;;;;16.10;61.36;102877.18;1737575;82;21468;-51
2021/10/30 00:25:30;;;;;;;27.93;22.32;;;;;;;16.09;61.28;102873.27;1738565;82;20975;-53
2021/10/30 00:27:56;;;;;;;31.60;23.80;;;;;;;16.09;61.23;102870.17;1737837;82;21696;-51
2021/10/30 00:30:23;;;;;;;30.48;22.52;;;;;;;16.10;61.22;102871.93;1735714;82;21562;-52
2021/10/30 00:32:50;;;;;;;29.40;21.55;;;;;;;16.10;61.24;102873.67;1737349;82;21054;-51
2021/10/30 00:35:17;;;;;;;31.85;23.00;;;;;;;16.11;61.30;102869.74;1734183;82;21070;-52
2021/10/30 00:37:43;;;;;;;28.57;22.37;;;;;;;16.12;61.48;102866.65;1735532;82;20991;-51
2021/10/30 00:40:12;;;;;;;29.77;21.40;;;;;;;16.14;61.58;102867.50;1735869;82;21046;-51
2021/10/30 00:42:40;;;;;;;32.45;22.15;;;;;;;16.15;61.51;102867.51;1735209;82;21502;-52
2021/10/30 00:45:08;;;;;;;26.02;21.00;;;;;;;16.16;61.56;102866.60;1736937;82;21035;-52
2021/10/30 00:47:35;;;;;;;29.72;22.37;;;;;;;16.19;61.50;102863.08;1734264;82;21529;-53
2021/10/30 00:50:03;;;;;;;34.48;22.40;;;;;;;16.18;61.58;102860.89;1732989;82;21031;-51
2021/10/30 00:52:30;;;;;;;28.20;22.13;;;;;;;16.20;61.71;102852.55;1735168;82;20983;-51
2021/10/30 00:54:58;;;;;;;27.65;21.37;;;;;;;16.22;61.75;102861.28;1735458;82;21010;-49
2021/10/30 00:57:25;;;;;;;29.85;21.45;;;;;;;16.23;61.75;102856.90;1735589;82;21478;-51
2021/10/30 00:59:52;;;;;;;29.98;22.15;;;;;;;16.25;61.84;102855.12;1737734;82;21038;-52
2021/10/30 01:02:20;;;;;;;28.12;20.97;;;;;;;16.27;61.90;102859.48;1738237;82;21058;-50
2021/10/30 01:04:46;;;;;;;26.93;21.85;;;;;;;16.27;62.03;102853.34;1737631;82;21078;-52
2021/10/30 01:07:13;;;;;;;30.80;22.45;;;;;;;16.29;62.06;102855.08;1735585;82;21014;-51
2021/10/30 01:09:39;;;;;;;26.55;20.15;;;;;;;16.29;62.14;102855.52;1737416;82;21050;-53
2021/10/30 01:12:11;;;;;;;27.05;21.42;;;;;;;16.32;62.29;102862.50;1733521;82;21053;-52
2021/10/30 01:14:37;;;;;;;29.40;20.75;;;;;;;16.32;62.28;102863.81;1739927;82;21004;-52
2021/10/30 01:17:07;;;;;;;25.25;20.50;;;;;;;16.33;62.37;102863.78;1701319;83;21499;-50
2021/10/30 01:19:34;;;;;;;27.40;20.40;;;;;;;16.35;62.45;102869.00;1736203;82;21050;-50
2021/10/30 01:22:02;;;;;;;26.37;20.70;;;;;;;16.36;62.53;102862.88;1735053;82;21018;-51
2021/10/30 01:24:28;;;;;;;29.52;21.37;;;;;;;16.40;62.52;102869.84;1736910;82;21046;-52
2021/10/30 01:26:54;;;;;;;26.27;19.75;;;;;;;16.41;62.54;102866.30;1738648;82;20979;-50
2021/10/30 01:29:22;;;;;;;26.90;20.65;;;;;;;16.43;62.53;102878.98;1738583;82;21534;-53
2021/10/30 01:31:50;;;;;;;27.87;20.62;;;;;;;16.45;62.68;102873.26;1734283;82;21035;-51
2021/10/30 01:34:17;;;;;;;29.25;20.45;;;;;;;16.49;62.87;102877.59;1725483;82;20983;-51
2021/10/30 01:36:44;;;;;;;27.62;19.52;;;;;;;16.51;62.94;102875.84;1738605;82;21007;-51
2021/10/30 01:39:10;;;;;;;27.65;20.40;;;;;;;16.53;63.04;102878.00;1736278;82;21025;-50
2021/10/30 01:41:37;;;;;;;24.57;20.20;;;;;;;16.55;63.13;102876.26;1736784;82;21038;-52
2021/10/30 01:44:05;;;;;;;21.77;18.45;;;;;;;16.57;63.28;102874.48;1737655;82;20998;-51
2021/10/30 01:46:32;;;;;;;25.90;19.30;;;;;;;16.59;63.33;102882.74;1724624;82;21026;-51
2021/10/30 01:48:59;;;;;;;26.42;18.60;;;;;;;16.62;63.38;102881.41;1731970;82;21019;-52
2021/10/30 01:51:27;;;;;;;27.93;20.37;;;;;;;16.65;63.38;102876.56;1738351;82;21047;-51
2021/10/30 01:53:55;;;;;;;27.25;19.48;;;;;;;16.67;63.37;102880.03;1737003;82;21448;-52
2021/10/30 01:56:22;;;;;;;22.45;18.17;;;;;;;16.68;63.40;102879.12;1736373;82;21078;-52
2021/10/30 01:58:48;;;;;;;25.00;19.45;;;;;;;16.70;63.39;102870.77;1737558;82;21502;-51
2021/10/30 02:01:15;;;;;;;28.47;18.95;;;;;;;16.71;63.46;102873.84;1738712;82;21459;-50
2021/10/30 02:03:41;;;;;;;25.15;19.32;;;;;;;16.74;63.50;102871.16;1738127;82;20995;-52
2021/10/30 02:06:08;;;;;;;23.55;18.85;;;;;;;16.75;63.51;102874.23;1736511;82;21066;-51
2021/10/30 02:08:35;;;;;;;22.93;17.98;;;;;;;16.77;63.51;102871.13;1734476;82;21015;-50
2021/10/30 02:11:02;;;;;;;22.25;17.65;;;;;;;16.78;63.56;102876.80;1735911;82;21030;-54
2021/10/30 02:13:29;;;;;;;23.38;18.23;;;;;;;16.78;63.57;102871.53;1735575;82;21006;-51
2021/10/30 02:15:56;;;;;;;27.77;18.50;;;;;;;16.80;63.64;102873.70;1730794;82;21054;-50
2021/10/30 02:18:22;;;;;;;20.77;18.02;;;;;;;16.79;63.68;102877.23;1733727;82;20995;-51
2021/10/30 02:20:49;;;;;;;20.68;16.97;;;;;;;16.79;63.73;102878.55;1735773;82;21018;-52
2021/10/30 02:23:15;;;;;;;19.98;16.60;;;;;;;16.79;63.70;102878.11;1735151;82;21010;-51
2021/10/30 02:25:42;;;;;;;18.92;16.07;;;;;;;16.81;63.78;102880.71;1729362;82;21030;-53
2021/10/30 02:28:08;;;;;;;23.05;16.77;;;;;;;16.81;63.73;102882.03;1729844;82;21031;-52
2021/10/30 02:30:35;;;;;;;19.23;14.95;;;;;;;16.82;63.69;102885.94;1730256;82;21058;-50
2021/10/30 02:33:02;;;;;;;19.25;15.88;;;;;;;16.84;63.65;102892.48;1728680;82;21035;-51
2021/10/30 02:35:29;;;;;;;21.70;16.07;;;;;;;16.84;63.69;102881.53;1728688;82;21002;-52
2021/10/30 02:37:55;;;;;;;17.62;14.80;;;;;;;16.87;63.67;102889.83;1729655;82;21014;-54
2021/10/30 02:40:22;;;;;;;18.00;13.83;;;;;;;16.87;63.68;102889.83;1730547;82;21058;-52
2021/10/30 02:42:48;;;;;;;20.75;14.05;;;;;;;16.88;63.72;102891.55;1730628;82;21054;-53
2021/10/30 02:45:16;;;;;;;15.98;13.85;;;;;;;16.89;63.72;102897.25;1724404;82;21543;-50
2021/10/30 02:47:43;;;;;;;17.40;13.70;;;;;;;16.90;63.68;102893.71;1727572;82;21624;-51
2021/10/30 02:50:09;;;;;;;18.32;13.30;;;;;;;16.91;63.71;102895.47;1727557;82;21468;-52
2021/10/30 02:52:40;;;;;;;17.25;13.43;;;;;;;16.93;63.60;102893.25;1668910;85;21086;-52
2021/10/30 02:55:09;;;;;;;18.07;13.43;;;;;;;16.93;63.56;102897.19;1730629;82;21059;-51
2021/10/30 02:57:37;;;;;;;16.32;13.20;;;;;;;16.93;63.41;102897.63;1730584;82;21543;-52
2021/10/30 03:00:06;;;;;;;19.50;13.40;;;;;;;16.93;63.35;102901.57;1728865;82;21034;-51
2021/10/30 03:02:33;;;;;;;18.37;13.00;;;;;;;16.92;63.21;102902.45;1728375;82;20979;-52
2021/10/30 03:05:01;;;;;;;18.87;12.47;;;;;;;16.93;63.04;102901.57;1726301;82;21006;-54
2021/10/30 03:07:28;;;;;;;12.82;11.40;;;;;;;16.92;63.00;102902.45;1729771;82;21006;-51
2021/10/30 03:09:54;;;;;;;12.68;11.05;;;;;;;16.93;62.90;102911.66;1730545;82;20991;-50
2021/10/30 03:12:21;;;;;;;17.37;11.50;;;;;;;16.93;62.86;102909.03;1729459;82;20995;-52
2021/10/30 03:14:49;;;;;;;13.50;11.28;;;;;;;16.95;62.68;102905.05;1727312;82;21051;-51
2021/10/30 03:17:15;;;;;;;15.80;10.10;;;;;;;16.93;62.54;102909.03;1727473;82;21090;-51
2021/10/30 03:19:42;;;;;;;13.65;10.82;;;;;;;16.93;62.48;102909.46;1727231;82;21046;-52
2021/10/30 03:22:09;;;;;;;12.23;10.03;;;;;;;16.93;62.39;102912.09;1727520;82;21015;-52
2021/10/30 03:24:37;;;;;;;11.80;8.55;;;;;;;16.92;62.21;102912.97;1730505;82;21061;-50
2021/10/30 03:27:05;;;;;;;10.80;7.55;;;;;;;16.90;61.98;102908.17;1738626;82;21050;-51
2021/10/30 03:29:31;;;;;;;11.90;7.35;;;;;;;16.89;61.87;102910.39;1738666;82;21065;-53
2021/10/30 03:31:58;;;;;;;8.40;6.85;;;;;;;16.88;61.50;102902.95;1734258;82;21566;-52
2021/10/30 03:34:25;;;;;;;9.20;6.90;;;;;;;16.87;61.20;102904.29;1738592;82;21515;-53
2021/10/30 03:36:51;;;;;;;9.63;6.70;;;;;;;16.86;61.06;102901.22;1736599;82;21479;-50
2021/10/30 03:39:19;;;;;;;7.08;5.53;;;;;;;16.86;60.87;102905.16;1730696;81;21487;-51
2021/10/30 03:41:46;;;;;;;8.73;6.42;;;;;;;16.84;60.76;102904.31;1733692;82;21042;-55
2021/10/30 03:44:14;;;;;;;9.15;6.22;;;;;;;16.84;60.59;102904.31;1734754;81;21526;-49
2021/10/30 03:46:42;;;;;;;6.62;5.92;;;;;;;16.84;60.38;102907.83;1726930;82;21023;-51
2021/10/30 03:49:09;;;;;;;8.20;6.65;;;;;;;16.83;60.10;102910.48;1736218;81;21042;-52
2021/10/30 03:51:35;;;;;;;9.60;6.95;;;;;;;16.81;60.10;102912.27;1738665;82;21499;-50
2021/10/30 03:54:02;;;;;;;11.03;7.10;;;;;;;16.78;60.19;102909.66;1738752;82;21034;-52
2021/10/30 03:56:28;;;;;;;10.05;7.35;;;;;;;16.76;60.27;102914.07;1735623;82;21006;-52
2021/10/30 03:58:56;;;;;;;8.73;7.00;;;;;;;16.73;60.41;102914.13;1737478;81;21039;-51
2021/10/30 04:01:22;;;;;;;10.25;7.15;;;;;;;16.71;60.43;102914.59;1737515;82;21018;-53
2021/10/30 04:03:49;;;;;;;9.15;7.20;;;;;;;16.68;60.48;102911.98;1738576;82;20975;-51
2021/10/30 04:06:17;;;;;;;8.33;7.42;;;;;;;16.68;60.39;102917.25;1737711;82;21082;-50
2021/10/30 04:08:44;;;;;;;14.33;10.03;;;;;;;16.66;60.46;102920.34;1735650;82;21019;-50
2021/10/30 04:11:11;;;;;;;17.42;10.45;;;;;;;16.65;60.64;102913.36;1727778;82;21011;-52
2021/10/30 04:13:38;;;;;;;14.18;11.30;;;;;;;16.66;60.88;102909.39;1738442;82;21027;-52
2021/10/30 04:16:05;;;;;;;15.03;11.97;;;;;;;16.68;61.08;102906.73;1738480;82;21057;-50
2021/10/30 04:18:31;;;;;;;18.55;13.58;;;;;;;16.70;61.09;102911.52;1736410;82;21046;-53
2021/10/30 04:20:59;;;;;;;21.15;14.55;;;;;;;16.61;61.42;102909.03;1736832;82;21538;-52
2021/10/30 04:23:25;;;;;;;19.70;15.43;;;;;;;16.70;61.26;102911.09;1736499;82;21480;-53
2021/10/30 04:25:53;;;;;;;21.85;16.70;;;;;;;16.71;61.35;102910.65;1733643;82;21515;-51
2021/10/30 04:28:20;;;;;;;21.95;16.75;;;;;;;16.55;61.99;102913.05;1730332;82;21011;-51
2021/10/30 04:30:47;;;;;;;22.37;16.73;;;;;;;16.69;61.56;102909.80;1728152;82;21118;-53
2021/10/30 04:33:16;;;;;;;25.00;19.17;;;;;;;16.70;61.52;102920.73;1714870;82;21047;-51
2021/10/30 04:35:43;;;;;;;26.82;19.32;;;;;;;16.69;61.49;102915.05;1730632;82;21027;-51
2021/10/30 04:38:09;;;;;;;24.65;20.27;;;;;;;16.69;61.59;102915.05;1728821;82;21038;-52
2021/10/30 04:40:36;;;;;;;28.02;19.82;;;;;;;16.67;61.61;102918.16;1727499;82;21027;-53
2021/10/30 04:43:05;;;;;;;31.12;20.82;;;;;;;16.65;61.56;102919.93;1726794;82;21097;-50
2021/10/30 04:45:33;;;;;;;24.30;20.02;;;;;;;16.64;61.58;102922.12;1727174;82;21079;-51
2021/10/30 04:47:59;;;;;;;23.52;20.02;;;;;;;16.63;61.60;102920.39;1727573;82;21007;-51
2021/10/30 04:50:26;;;;;;;28.25;20.92;;;;;;;16.62;61.60;102925.21;1728721;82;21499;-49
2021/10/30 04:52:53;;;;;;;28.50;20.62;;;;;;;16.61;61.63;102927.43;1730455;82;21483;-53
2021/10/30 04:55:19;;;;;;;26.87;20.82;;;;;;;16.61;61.71;102932.69;1730431;82;21053;-51
2021/10/30 04:57:46;;;;;;;28.00;21.00;;;;;;;16.59;61.65;102933.15;1734294;82;21062;-53
2021/10/30 05:00:13;;;;;;;28.12;21.35;;;;;;;16.58;61.65;102940.59;1729517;82;21003;-52
2021/10/30 05:02:41;;;;;;;29.77;22.05;;;;;;;16.57;61.74;102946.76;1729553;82;21531;-55
2021/10/30 05:05:08;;;;;;;27.90;21.97;;;;;;;16.56;61.76;102943.69;1717251;82;21022;-53
2021/10/30 05:07:35;;;;;;;28.92;21.87;;;;;;;16.57;61.75;102948.07;1727308;82;21064;-51
2021/10/30 05:10:01;;;;;;;34.40;23.50;;;;;;;16.57;61.78;102946.29;1729326;82;21014;-51
2021/10/30 05:12:28;;;;;;;28.40;21.02;;;;;;;16.57;61.69;102941.50;1725770;82;21027;-51
2021/10/30 05:14:55;;;;;;;26.70;22.25;;;;;;;16.57;61.73;102941.50;1732160;82;21005;-50
2021/10/30 05:17:21;;;;;;;31.95;22.17;;;;;;;16.60;61.80;102946.70;1727080;82;20991;-50
2021/10/30 05:19:48;;;;;;;28.07;21.77;;;;;;;16.61;61.82;102941.89;1727512;82;21031;-51
2021/10/30 05:22:16;;;;;;;34.18;22.22;;;;;;;16.61;61.85;102936.62;1726763;82;21078;-52
2021/10/30 05:24:42;;;;;;;30.05;22.58;;;;;;;16.64;61.72;102943.15;1727896;82;21050;-51
2021/10/30 05:27:09;;;;;;;28.17;21.30;;;;;;;16.65;61.71;102942.27;1728391;82;21018;-52
2021/10/30 05:29:36;;;;;;;37.80;25.80;;;;;;;16.67;61.59;102943.12;1730249;82;21027;-49
2021/10/30 05:32:04;;;;;;;37.30;26.37;;;;;;;16.68;61.42;102942.22;1726326;82;21531;-51
2021/10/30 05:34:31;;;;;;;34.35;25.55;;;;;;;16.67;61.18;102940.50;1709807;82;21503;-51
2021/10/30 05:37:09;;;;;;;28.00;21.73;;;;;;;16.69;61.10;102947.92;1658628;85;21082;-51
2021/10/30 05:39:37;;;;;;;34.67;24.50;;;;;;;16.69;60.99;102947.92;1641595;87;21539;-53
2021/10/30 05:42:06;;;;;;;37.00;25.57;;;;;;;16.70;61.11;102949.64;1641426;87;21043;-50
2021/10/30 05:44:32;;;;;;;39.13;27.32;;;;;;;16.72;61.06;102947.86;1619897;88;21094;-52
2021/10/30 05:46:59;;;;;;;38.23;28.47;;;;;;;16.72;61.13;102951.81;1630157;87;21031;-51
2021/10/30 05:49:26;;;;;;;41.85;28.27;;;;;;;16.75;61.15;102954.41;1641642;87;21054;-49
2021/10/30 05:51:53;;;;;;;38.05;27.17;;;;;;;16.82;61.42;102956.05;1607972;89;21645;-50
2021/10/30 05:54:19;;;;;;;42.08;28.62;;;;;;;16.93;61.38;102958.11;1605963;89;22625;-51
2021/10/30 05:56:46;;;;;;;42.03;28.98;;;;;;;17.04;61.14;102960.17;1606998;89;21559;-49
2021/10/30 05:59:12;;;;;;;43.05;29.82;;;;;;;17.18;61.00;102955.58;1604603;88;21563;-50
2021/10/30 06:01:39;;;;;;;40.70;29.63;;;;;;;17.30;60.68;102955.40;1642827;87;21103;-51
2021/10/30 06:04:05;;;;;;;42.90;29.35;;;;;;;17.39;60.28;102953.95;1641659;87;21007;-50
2021/10/30 06:06:32;;;;;;;43.70;29.52;;;;;;;17.45;60.04;102953.86;1630153;87;21070;-52
2021/10/30 06:08:59;;;;;;;45.30;29.80;;;;;;;17.51;59.98;102950.29;1636221;87;21055;-51
2021/10/30 06:11:25;;;;;;;39.15;27.37;;;;;;;17.59;59.76;102953.23;1608018;88;21063;-49
2021/10/30 06:13:52;;;;;;;44.55;31.27;;;;;;;17.68;59.66;102953.06;1619714;87;21643;-51
2021/10/30 06:16:18;;;;;;;33.20;25.90;;;;;;;17.77;59.44;102955.55;1634058;87;21558;-51
2021/10/30 06:18:45;;;;;;;28.47;21.27;;;;;;;17.84;59.04;102955.88;1634432;87;21079;-49
2021/10/30 06:21:11;;;;;;;23.90;19.45;;;;;;;17.91;58.54;102957.09;1654023;86;21062;-51
2021/10/30 06:23:38;;;;;;;26.40;19.55;;;;;;;17.97;58.07;102956.98;1654035;86;21097;-52
2021/10/30 06:26:05;;;;;;;22.93;19.20;;;;;;;18.00;57.64;102955.59;1641928;86;21090;-50
2021/10/30 06:28:31;;;;;;;22.65;18.07;;;;;;;18.04;57.35;102953.33;1632572;87;21016;-50
2021/10/30 06:30:58;;;;;;;21.45;17.92;;;;;;;18.08;57.01;102957.20;1632851;87;21128;-50
2021/10/30 06:33:25;;;;;;;23.65;18.05;;;;;;;18.12;56.73;102961.95;1632172;87;21082;-49
2021/10/30 06:35:51;;;;;;;20.77;17.77;;;;;;;18.15;56.33;102956.65;1633536;87;21610;-50
2021/10/30 06:38:18;;;;;;;24.75;17.80;;;;;;;18.18;55.89;102958.77;1631685;87;21579;-50
2021/10/30 06:40:44;;;;;;;18.92;16.82;;;;;;;18.18;55.75;102964.04;1632186;87;21519;-49
2021/10/30 06:43:10;;;;;;;23.90;16.57;;;;;;;18.18;55.66;102959.21;1677420;83;21459;-54
2021/10/30 06:45:38;;;;;;;21.52;16.17;;;;;;;18.16;55.43;102961.88;1703471;83;21062;-50
2021/10/30 06:48:04;;;;;;;23.60;17.40;;;;;;;18.15;55.41;102957.53;1704068;83;21455;-51
2021/10/30 06:50:32;;;;;;;21.45;16.45;;;;;;;18.18;55.17;102963.16;1705787;83;21053;-55
2021/10/30 06:52:58;;;;;;;20.55;15.72;;;;;;;18.18;54.81;102953.94;1706651;83;21084;-50
2021/10/30 06:55:25;;;;;;;18.12;15.98;;;;;;;18.15;54.74;102952.25;1705617;83;21546;-50
2021/10/30 06:57:52;;;;;;;18.48;16.00;;;;;;;18.16;54.78;102949.15;1704738;83;21561;-50
2021/10/30 07:00:19;;;;;;;19.40;16.27;;;;;;;18.16;54.79;102955.73;1705678;83;21562;-53
2021/10/30 07:02:47;;;;;;;17.65;15.85;;;;;;;18.17;54.72;102952.22;1702447;83;21067;-50
2021/10/30 07:05:14;;;;;;;16.35;14.38;;;;;;;18.15;54.54;102949.63;1708549;83;21060;-49
2021/10/30 07:07:40;;;;;;;17.45;15.63;;;;;;;18.16;54.52;102949.15;1705404;83;21475;-49
2021/10/30 07:10:08;;;;;;;18.90;16.48;;;;;;;18.17;54.67;102954.86;1703963;83;21014;-52
2021/10/30 07:12:37;;;;;;;20.00;16.25;;;;;;;18.17;54.87;102952.22;1703344;83;20999;-50
2021/10/30 07:15:07;;;;;;;21.60;16.05;;;;;;;18.16;54.64;102951.34;1703592;83;21053;-50
2021/10/30 07:17:35;;;;;;;26.60;21.65;;;;;;;18.16;54.64;102953.09;1629133;87;21056;-50
2021/10/30 07:20:02;;;;;;;36.85;25.57;;;;;;;18.19;55.28;102951.74;1634039;88;21041;-51
2021/10/30 07:22:29;;;;;;;36.10;25.48;;;;;;;18.23;55.90;102960.01;1625301;88;21073;-50
2021/10/30 07:24:55;;;;;;;33.98;24.43;;;;;;;18.28;55.80;102960.80;1633991;88;21121;-51
2021/10/30 07:27:22;;;;;;;31.73;24.43;;;;;;;18.29;55.59;102959.89;1672752;86;21043;-51
2021/10/30 07:29:49;;;;;;;34.25;25.65;;;;;;;18.26;55.54;102963.92;1675609;86;21039;-49
2021/10/30 07:32:17;;;;;;;35.40;25.55;;;;;;;18.22;55.36;102966.16;1676002;86;21113;-49
2021/10/30 07:34:43;;;;;;;35.60;25.12;;;;;;;18.19;55.29;102963.59;1675773;86;21023;-50
2021/10/30 07:37:09;;;;;;;31.27;24.30;;;;;;;18.16;55.46;102963.64;1675856;86;21027;-49
2021/10/30 07:39:36;;;;;;;31.68;24.35;;;;;;;18.16;55.45;102966.27;1675627;86;21075;-49
2021/10/30 07:42:04;;;;;;;29.07;23.40;;;;;;;18.12;55.13;102961.95;1675742;86;21047;-51
2021/10/30 07:44:31;;;;;;;33.63;24.27;;;;;;;18.05;55.32;102955.08;1670989;86;21070;-51
2021/10/30 07:46:58;;;;;;;34.85;24.90;;;;;;;17.99;55.21;102952.56;1674080;86;21095;-53
2021/10/30 07:49:26;;;;;;;31.02;23.75;;;;;;;17.92;55.26;102957.05;1670538;86;21035;-53
2021/10/30 07:51:52;;;;;;;28.92;22.73;;;;;;;17.84;55.37;102958.52;1670615;86;21082;-52
2021/10/30 07:54:19;;;;;;;35.48;26.02;;;;;;;17.80;55.46;102952.00;1672622;86;21106;-52
2021/10/30 07:56:45;;;;;;;31.12;24.18;;;;;;;17.71;55.50;102953.02;1661690;86;21066;-52
2021/10/30 07:59:12;;;;;;;33.53;25.27;;;;;;;17.65;55.58;102941.72;1671630;86;20983;-53
2021/10/30 08:01:39;;;;;;;33.55;24.37;;;;;;;17.57;55.57;102947.12;1664103;86;21015;-50
2021/10/30 08:04:05;;;;;;;35.23;25.15;;;;;;;17.51;55.96;102946.34;1672725;86;21521;-53
2021/10/30 08:06:32;;;;;;;32.53;24.40;;;;;;;17.48;56.18;102936.69;1671951;86;21074;-54
2021/10/30 08:08:58;;;;;;;33.30;25.50;;;;;;;17.43;55.92;102942.48;1664752;86;21051;-53
2021/10/30 08:11:25;;;;;;;36.42;24.50;;;;;;;17.37;55.99;102941.23;1672975;86;21086;-50
2021/10/30 08:13:52;;;;;;;31.68;24.45;;;;;;;17.33;56.05;102940.86;1692015;82;21473;-53
2021/10/30 08:16:19;;;;;;;33.85;25.12;;;;;;;17.33;56.11;102940.86;1732140;81;21524;-50
2021/10/30 08:18:45;;;;;;;32.30;25.25;;;;;;;17.32;56.11;102939.14;1739696;82;21505;-50
2021/10/30 08:21:12;;;;;;;33.13;24.98;;;;;;;17.28;55.83;102933.50;1743151;82;21533;-52
2021/10/30 08:23:38;;;;;;;33.98;25.00;;;;;;;17.19;55.86;102934.94;1727878;82;21515;-53
2021/10/30 08:26:05;;;;;;;33.65;25.10;;;;;;;17.15;55.97;102944.20;1738027;82;21455;-49
2021/10/30 08:28:32;;;;;;;36.63;25.65;;;;;;;17.09;55.95;102945.17;1733891;82;21490;-54
2021/10/30 08:30:58;;;;;;;36.75;24.80;;;;;;;17.05;56.12;102946.98;1733795;82;21070;-51
2021/10/30 08:33:25;;;;;;;34.43;24.80;;;;;;;17.04;56.22;102944.39;1736733;82;21023;-50
2021/10/30 08:35:52;;;;;;;30.50;24.47;;;;;;;17.02;56.24;102944.85;1735675;82;21121;-53
2021/10/30 08:38:19;;;;;;;30.55;24.47;;;;;;;16.96;56.25;102943.62;1735340;82;21014;-53
2021/10/30 08:40:45;;;;;;;33.92;25.72;;;;;;;16.93;56.29;102951.10;1737524;82;20982;-50
2021/10/30 08:43:20;;;;;;;30.30;24.72;;;;;;;16.95;56.36;102947.12;1738614;81;21138;-50
2021/10/30 08:45:49;;;;;;;31.95;24.20;;;;;;;16.94;56.27;102951.95;1693642;84;20978;-53
2021/10/30 08:48:15;;;;;;;33.53;25.57;;;;;;;16.91;56.23;102952.00;1691007;84;21041;-50
2021/10/30 08:50:42;;;;;;;33.90;24.40;;;;;;;16.87;56.28;102951.63;1694427;84;21026;-52
2021/10/30 08:53:08;;;;;;;33.80;24.60;;;;;;;16.85;56.35;102954.28;1693843;84;21084;-53
2021/10/30 08:55:35;;;;;;;29.23;24.37;;;;;;;16.83;56.39;102959.13;1694871;84;20963;-52
2021/10/30 08:58:07;;;;;;;31.48;23.92;;;;;;;16.79;56.56;102954.80;1692260;84;20988;-51
2021/10/30 09:00:44;;;;;;;31.62;26.62;;;;;;;16.77;56.50;102952.63;1656708;86;20955;-51
2021/10/30 09:03:12;;;;;;;35.17;26.93;;;;;;;16.70;56.60;102954.90;1658509;86;21074;-50
2021/10/30 09:05:41;;;;;;;33.08;26.48;;;;;;;16.68;56.94;102959.30;1656716;86;21085;-50
2021/10/30 09:08:08;;;;;;;33.13;25.80;;;;;;;16.69;56.90;102953.17;1655979;86;21537;-53
2021/10/30 09:10:43;;;;;;;35.43;28.23;;;;;;;16.67;56.92;102957.11;1661014;86;21034;-51
2021/10/30 09:13:11;;;;;;;31.33;25.10;;;;;;;16.69;57.15;102955.80;1605065;88;21113;-52
2021/10/30 09:15:43;;;;;;;31.25;24.35;;;;;;;16.71;57.06;102950.08;1600562;88;21078;-53
2021/10/30 09:18:26;;;;;;;;;;;;;;;16.69;56.89;102949.23;1617294;88;21070;-54
2021/10/30 09:20:53;;;;;;;31.95;25.05;;;;;;;16.63;57.01;102951.94;1606683;88;20387;-50
2021/10/30 09:23:23;;;;;;;32.13;25.43;;;;;;;16.59;57.22;102950.23;1607011;88;21601;-50
2021/10/30 09:26:02;;;;;;;30.35;24.87;;;;;;;16.56;57.29;102950.25;1604381;88;21630;-51
2021/10/30 09:28:31;;;;;;;31.62;25.05;;;;;;;16.59;57.41;102947.61;1604425;88;21081;-52
2021/10/30 09:31:06;;;;;;;31.57;24.25;;;;;;;16.65;57.58;102948.84;1628338;87;21150;-52
2021/10/30 09:33:36;;;;;;;31.42;24.43;;;;;;;16.74;57.26;102943.02;1531299;92;21163;-53
2021/10/30 09:36:12;;;;;;;29.77;24.00;;;;;;;16.78;56.86;102935.95;1523911;92;21562;-52
2021/10/30 09:38:43;;;;;;;26.48;22.22;;;;;;;16.79;56.77;102941.22;1527851;92;21627;-50
2021/10/30 09:41:35;;;;;;;27.70;22.67;;;;;;;16.81;56.91;102935.49;1557906;90;21619;-50
2021/10/30 09:44:22;;;;;;;30.57;23.55;;;;;;;16.85;56.84;102933.69;1543896;92;21149;-54
2021/10/30 09:46:55;;;;;;;30.40;25.20;;;;;;;16.90;56.67;102929.21;1535612;92;21170;-52
2021/10/30 09:49:30;;;;;;;32.45;23.77;;;;;;;16.92;56.52;102931.37;1556412;91;21591;-52
2021/10/30 09:52:10;;;;;;;29.12;22.70;;;;;;;16.94;56.63;102930.91;1556850;91;21058;-54
2021/10/30 09:54:46;;;;;;;25.62;21.50;;;;;;;17.02;56.70;102919.87;1556351;91;21074;-52
2021/10/30 09:57:28;;;;;;;26.97;21.73;;;;;;;17.12;56.45;102913.58;1555142;91;21116;-52
2021/10/30 10:00:01;;;;;;;25.72;20.92;;;;;;;17.19;56.01;102910.42;1544413;92;21078;-54
2021/10/30 10:02:29;;;;;;;27.13;20.85;;;;;;;17.27;56.09;102912.48;1577235;91;21009;-52
2021/10/30 10:04:58;;;;;;;29.20;22.98;;;;;;;17.33;55.56;102911.91;1545682;92;21134;-52
2021/10/30 10:07:26;;;;;;;26.97;22.22;;;;;;;17.34;55.56;102911.04;1578601;91;21058;-54
2021/10/30 10:09:54;;;;;;;23.60;19.62;;;;;;;17.37;55.73;102906.18;1538254;92;21101;-54
2021/10/30 10:12:22;;;;;;;27.50;21.73;;;;;;;17.45;55.88;102906.92;1516288;94;21086;-53
2021/10/30 10:14:48;;;;;;;29.35;23.02;;;;;;;17.50;55.31;102902.03;1559048;92;21010;-53
2021/10/30 10:17:15;;;;;;;26.57;22.50;;;;;;;17.54;55.19;102902.40;1559179;92;21092;-54
2021/10/30 10:19:41;;;;;;;28.92;23.40;;;;;;;17.58;55.06;102902.77;1558974;92;21073;-53
2021/10/30 10:22:09;;;;;;;26.85;22.02;;;;;;;17.60;55.26;102898.34;1539289;92;21073;-54
2021/10/30 10:24:37;;;;;;;25.82;21.87;;;;;;;17.65;55.21;102893.01;1559005;92;21069;-54
2021/10/30 10:27:06;;;;;;;27.48;21.23;;;;;;;17.69;55.07;102891.62;1562216;91;21062;-54
2021/10/30 10:29:47;;;;;;;22.95;20.32;;;;;;;17.75;55.28;102891.51;1579744;89;21519;-53
2021/10/30 10:32:22;;;;;;;27.05;20.68;;;;;;;17.80;55.30;102894.91;1599802;89;21090;-53
2021/10/30 10:34:49;;;;;;;23.38;19.82;;;;;;;17.87;54.97;102893.92;1598088;89;21038;-53
2021/10/30 10:37:24;;;;;;;19.10;16.82;;;;;;;17.88;54.72;102894.36;1617346;85;21925;-53
2021/10/30 10:39:57;;;;;;;17.75;12.45;;;;;;;17.87;54.38;102893.92;1667909;85;21061;-54
2021/10/30 10:42:40;;;;;;;17.67;13.88;;;;;;;17.92;53.27;102890.33;1626361;85;21034;-54
2021/10/30 10:45:15;;;;;;;12.80;10.70;;;;;;;18.02;52.41;102887.94;1616721;88;21083;-53
2021/10/30 10:47:50;;;;;;;18.50;11.68;;;;;;;18.15;51.63;102885.51;1614585;87;21594;-54
2021/10/30 10:50:34;;;;;;;15.48;10.63;;;;;;;18.26;50.96;102879.11;1613081;87;21103;-53
2021/10/30 10:53:07;;;;;;;16.97;10.93;;;;;;;18.36;50.54;102873.23;1645510;86;21559;-53
2021/10/30 10:55:40;;;;;;;12.55;10.88;;;;;;;18.43;49.71;102872.19;1651014;86;21092;-54
2021/10/30 10:58:07;;;;;;;;;;;;;;;18.52;49.70;102875.99;1610226;89;21113;-54
2021/10/30 11:00:35;;;;;;;12.07;10.23;;;;;;;18.58;50.22;102878.50;1616165;89;20096;-53
2021/10/30 11:03:02;;;;;;;14.83;10.20;;;;;;;18.64;49.36;102874.41;1617936;88;21047;-54
2021/10/30 11:05:35;;;;;;;14.45;10.70;;;;;;;18.68;48.76;102872.12;1617756;88;21068;-54
2021/10/30 11:08:13;;;;;;;16.10;10.58;;;;;;;18.73;48.60;102867.63;1617846;88;21590;-54
2021/10/30 11:10:44;;;;;;;13.20;10.78;;;;;;;18.80;48.45;102869.20;1617838;88;21043;-54
2021/10/30 11:13:14;;;;;;;15.68;10.32;;;;;;;18.84;47.87;102862.95;1615768;89;21530;-54
2021/10/30 11:15:54;;;;;;;14.75;10.23;;;;;;;18.87;47.69;102866.86;1616915;89;21044;-54